Airfield :
LOGIN :

Register | Disclaimer

   EN    FR    IT 

 










Legend :    VFR   Marginal VFR   IFR   Intensive IFR   Very Intensive IFR
Visi :
Ceiling :
>= 8 km
>= 3000ft
5 to 8 km
1000 to 3000 ft
1500m to 5 km
500 to 1000 ft
800 to 1500m
200 to 500 ft
< 800m
< 200 ft
Symbols :   Thunderstorms  Fog  Heavy snow  Heavy precipitations  Wind > 20 kt
SIGMETs :     Misc.  Thunderstorms  Icing  Turbulence  Mountain Waves  Volcanic Ashes







- Airport Elevation : 353 ft
- IATA code : ZAG


LDZA - Zagreb Pleso

CURRENT METAR :
  • 171400Z 24004KT 160V300 9999 FEW045 28/15 Q1012 NOSIG

EXPIRED METARs :
  • 171330Z 25003KT 190V300 9999 FEW045 28/16 Q1013 NOSIG
  • 171300Z 26006KT 170V300 9999 FEW045 28/16 Q1013 NOSIG
  • 171230Z 22004KT 170V290 9999 FEW040 27/16 Q1013 NOSIG
  • 171200Z VRB03KT 9999 FEW040 27/17 Q1014 NOSIG
  • 171130Z VRB03KT 9999 FEW045 27/18 Q1014 NOSIG

TAF TAF LDZA
Valid from the 17 at 12:00 until the 18 at 12:00 UTC


171125Z 1712/1812 26005KT 9999 SCT035 TX28/1714Z TN13/1806Z
PROB40
TEMPO 1717/1801 TSRA SCT015 FEW025CB BKN030
BECMG 1722/1800 05008KT
PROB30
TEMPO 1801/1807 05015G25KT RA
BECMG 1806/1808 10006KT
ATIS : +385 1 6-259-214
No reported NOTAMs for that airfield.



MET'MAP, your aeronautical weather chart ! - Copyright ORBIFLY December 2007 - Disclaimer

ORBIFLY MET'MAP TEAM :

Programming & Development : Alexandra Zaïnal
Concept & Development : Baudouin d'Aumeries
Co-Development & Prog : Marc-Olivier Méhu
Technical & hardware support : Manuel Goepfert

Contact : metmap@orbifly.com




SOURCES & CREDITS :

   NOAA